createdAt,value
2022-11-03T00:03:27.729Z,99411.36
2022-11-03T00:08:29.533Z,99417.55
2022-11-03T00:13:38.709Z,99420.55
2022-11-03T00:18:40.659Z,99431.06
2022-11-03T00:23:44.007Z,99432.52
2022-11-03T00:28:47.703Z,99428.14
2022-11-03T00:33:50.438Z,99424.58
2022-11-03T00:38:52.990Z,99421.80
2022-11-03T00:43:55.289Z,99426.36
2022-11-03T00:48:57.119Z,99430.80
2022-11-03T00:54:01.104Z,99427.59
2022-11-03T00:59:05.192Z,99421.66
2022-11-03T01:04:26.868Z,99430.01
2022-11-03T01:09:31.642Z,99434.55
2022-11-03T01:14:36.459Z,99439.70
2022-11-03T01:19:38.340Z,99440.25
2022-11-03T01:24:41.744Z,99436.70
2022-11-03T01:29:44.056Z,99431.66
2022-11-03T01:34:45.981Z,99427.51
2022-11-03T01:39:47.786Z,99429.33
2022-11-03T01:44:49.774Z,99426.88
2022-11-03T01:50:05.980Z,99433.75
2022-11-03T01:55:13.572Z,99428.41
2022-11-03T02:00:15.952Z,99425.91
2022-11-03T02:05:21.772Z,99416.66
2022-11-03T02:10:25.270Z,99413.18
2022-11-03T02:15:28.956Z,99413.62
2022-11-03T02:20:31.997Z,99410.95
2022-11-03T02:25:36.532Z,99410.72
2022-11-03T02:31:00.021Z,99409.16
2022-11-03T02:36:05.897Z,99402.89
2022-11-03T02:41:09.231Z,99409.60
2022-11-03T02:46:13.433Z,99412.67
2022-11-03T02:51:15.227Z,99408.38
2022-11-03T02:56:23.217Z,99408.52
2022-11-03T03:01:47.555Z,99407.94
2022-11-03T03:06:57.777Z,99409.09
2022-11-03T03:12:02.470Z,99408.14
2022-11-03T03:17:24.414Z,99407.27
2022-11-03T03:22:36.764Z,99412.73
2022-11-03T03:27:43.442Z,99413.09
2022-11-03T03:32:49.134Z,99410.99
2022-11-03T03:37:54.943Z,99409.95
2022-11-03T03:42:58.255Z,99415.17
2022-11-03T03:48:00.764Z,99407.24
2022-11-03T03:53:05.308Z,99411.48
2022-11-03T03:58:08.476Z,99407.29
2022-11-03T04:03:19.917Z,99405.81
2022-11-03T04:08:21.879Z,99396.73
2022-11-03T04:13:42.453Z,99396.64
2022-11-03T04:19:02.963Z,99394.97
2022-11-03T04:24:04.970Z,99398.58
2022-11-03T04:29:09.660Z,99390.14
2022-11-03T04:34:13.063Z,99388.86
2022-11-03T04:39:21.210Z,99388.39
2022-11-03T04:44:23.083Z,99386.46
2022-11-03T04:49:25.333Z,99379.67
2022-11-03T04:54:27.274Z,99383.73
2022-11-03T04:59:29.452Z,99374.79
2022-11-03T05:04:31.193Z,99367.40
2022-11-03T05:09:33.000Z,99363.98
2022-11-03T05:14:34.823Z,99361.91
2022-11-03T05:19:41.264Z,99355.05
2022-11-03T05:24:44.117Z,99354.05
2022-11-03T05:29:47.270Z,99350.84
2022-11-03T05:34:51.424Z,99358.40
2022-11-03T05:39:59.587Z,99357.55
2022-11-03T05:45:15.884Z,99357.39
2022-11-03T05:50:22.176Z,99349.84
2022-11-03T05:55:37.254Z,99356.20
2022-11-03T06:00:48.160Z,99354.18
2022-11-03T06:05:51.926Z,99354.77
2022-11-03T06:10:57.081Z,99355.73
2022-11-03T06:16:21.155Z,99355.00
2022-11-03T06:21:25.585Z,99353.15
2022-11-03T06:26:28.850Z,99347.54
2022-11-03T06:31:33.129Z,99344.48
2022-11-03T06:36:37.371Z,99346.89
2022-11-03T06:41:39.961Z,99347.84
2022-11-03T06:46:41.829Z,99347.59
2022-11-03T06:51:43.644Z,99348.77
2022-11-03T06:56:45.467Z,99350.60
2022-11-03T07:01:55.403Z,99345.11
2022-11-03T07:07:03.091Z,99344.05
2022-11-03T07:12:14.998Z,99338.20
2022-11-03T07:17:22.126Z,99331.24
2022-11-03T07:22:26.115Z,99323.67
2022-11-03T07:27:31.245Z,99313.46
2022-11-03T07:32:34.730Z,99309.45
2022-11-03T07:37:36.851Z,99308.66
2022-11-03T07:42:38.751Z,99305.64
2022-11-03T07:47:44.017Z,99301.69
2022-11-03T07:52:45.798Z,99301.94
2022-11-03T07:57:48.301Z,99300.61
2022-11-03T08:02:59.200Z,99289.08
2022-11-03T08:08:01.063Z,99288.60
2022-11-03T08:13:02.961Z,99283.19
2022-11-03T08:18:04.882Z,99275.42
2022-11-03T08:23:24.612Z,99265.77
2022-11-03T08:28:27.451Z,99263.77
2022-11-03T08:38:36.479Z,99251.68
2022-11-03T08:43:38.282Z,99250.00
2022-11-03T08:48:40.280Z,99243.98
2022-11-03T08:53:42.999Z,99241.14
2022-11-03T08:58:44.944Z,99233.23
2022-11-03T09:03:46.919Z,99227.02
2022-11-03T09:14:10.803Z,99223.52
2022-11-03T09:19:12.662Z,99217.17
2022-11-03T09:24:14.469Z,99219.08
2022-11-03T09:29:16.277Z,99215.84
2022-11-03T09:34:18.112Z,99212.18
2022-11-03T09:39:19.980Z,99201.43
2022-11-03T09:44:21.838Z,99196.55
2022-11-03T09:49:23.896Z,99188.23
2022-11-03T09:54:27.195Z,99178.31
2022-11-03T09:59:30.522Z,99161.59
2022-11-03T10:04:32.491Z,99159.01
2022-11-03T10:09:34.622Z,99148.00
2022-11-03T10:14:37.067Z,99141.64
2022-11-03T10:19:38.885Z,99131.77
2022-11-03T10:24:40.702Z,99121.86
2022-11-03T10:29:45.391Z,99117.35
2022-11-03T10:34:52.615Z,99105.77
2022-11-03T10:39:57.255Z,99098.31
2022-11-03T10:45:19.987Z,99090.50
2022-11-03T10:50:26.910Z,99091.77
2022-11-03T10:55:30.478Z,99085.63
2022-11-03T11:00:33.369Z,99074.93
2022-11-03T11:05:35.317Z,99061.81
2022-11-03T11:10:37.187Z,99056.39
2022-11-03T11:15:50.968Z,99053.04
2022-11-03T11:20:52.748Z,99045.86
2022-11-03T11:26:09.947Z,99040.38
2022-11-03T11:31:27.133Z,99033.23
2022-11-03T11:36:29.113Z,99015.52
2022-11-03T11:42:08.695Z,98999.65
2022-11-03T11:47:27.940Z,99000.08
2022-11-03T11:52:30.297Z,98988.56
2022-11-03T11:57:35.346Z,98974.73
2022-11-03T12:02:37.183Z,98964.19
2022-11-03T12:07:38.956Z,98956.16
2022-11-03T12:12:40.723Z,98949.45
2022-11-03T12:17:42.512Z,98939.91
2022-11-03T12:22:44.366Z,98929.16
2022-11-03T12:27:46.349Z,98920.30
2022-11-03T12:32:48.355Z,98905.21
2022-11-03T12:37:50.139Z,98901.19
2022-11-03T12:42:52.056Z,98889.18
2022-11-03T12:47:53.829Z,98876.17
2022-11-03T12:52:55.627Z,98871.61
2022-11-03T12:57:57.494Z,98863.60
2022-11-03T13:02:59.313Z,98860.40
2022-11-03T13:08:01.104Z,98854.92
2022-11-03T13:13:02.923Z,98844.06
2022-11-03T13:18:14.069Z,98834.77
2022-11-03T13:23:18.856Z,98827.70
2022-11-03T13:28:24.148Z,98823.59
2022-11-03T13:33:26.045Z,98811.42
2022-11-03T13:38:27.832Z,98811.45
2022-11-03T13:43:29.612Z,98807.09
2022-11-03T14:04:44.603Z,98785.89
2022-11-03T14:09:47.153Z,98780.23
2022-11-03T14:14:48.949Z,98784.90
2022-11-03T14:19:52.839Z,98778.45
2022-11-03T14:24:57.127Z,98772.76
2022-11-03T14:29:59.006Z,98772.37
2022-11-03T14:35:00.911Z,98768.30
2022-11-03T14:40:03.159Z,98766.13
2022-11-03T14:45:05.412Z,98757.27
2022-11-03T14:50:07.747Z,98749.84
2022-11-03T14:55:09.664Z,98742.54
2022-11-03T15:00:11.840Z,98740.81
2022-11-03T15:05:33.631Z,98737.11
2022-11-03T15:10:35.427Z,98730.69
2022-11-03T15:15:37.334Z,98721.55
2022-11-03T15:20:39.177Z,98715.84
2022-11-03T15:25:41.047Z,98707.07
2022-11-03T15:30:42.926Z,98701.25
2022-11-03T15:35:45.344Z,98688.95
2022-11-03T15:40:47.177Z,98683.92
2022-11-03T15:45:48.932Z,98676.17
2022-11-03T15:50:50.946Z,98673.98
2022-11-03T15:55:52.843Z,98667.84
2022-11-03T16:00:54.723Z,98663.94
2022-11-03T16:05:56.716Z,98659.05
2022-11-03T16:10:58.606Z,98660.45
2022-11-03T16:16:00.502Z,98659.42
2022-11-03T16:21:02.489Z,98656.05
2022-11-03T16:26:05.746Z,98646.73
2022-11-03T16:31:07.549Z,98634.17
2022-11-03T16:36:09.460Z,98626.41
2022-11-03T16:41:11.822Z,98616.24
2022-11-03T16:46:13.675Z,98613.66
2022-11-03T16:51:15.509Z,98614.53
2022-11-03T16:56:17.350Z,98609.81
2022-11-03T17:01:19.303Z,98600.16
2022-11-03T17:06:21.367Z,98593.08
2022-11-03T17:11:49.388Z,98590.94
2022-11-03T17:16:51.313Z,98588.02
2022-11-03T17:21:53.770Z,98594.94
2022-11-03T17:27:07.568Z,98597.42
2022-11-03T17:32:22.159Z,98599.55
2022-11-03T17:37:25.200Z,98591.92
2022-11-03T17:42:28.617Z,98586.94
2022-11-03T17:47:31.853Z,98576.27
2022-11-03T17:52:34.116Z,98562.41
2022-11-03T17:57:36.574Z,98547.02
2022-11-03T18:02:40.600Z,98532.71
2022-11-03T18:07:42.943Z,98524.40
2022-11-03T18:13:07.509Z,98528.31
2022-11-03T18:18:14.664Z,98523.04
2022-11-03T18:23:30.515Z,98516.17
2022-11-03T18:28:32.345Z,98507.36
2022-11-03T18:33:36.139Z,98501.48
2022-11-03T18:38:41.466Z,98488.14
2022-11-03T18:43:43.269Z,98484.98
2022-11-03T18:48:45.099Z,98479.55
2022-11-03T18:53:46.975Z,98468.32
2022-11-03T18:58:52.639Z,98464.61
2022-11-03T19:03:56.395Z,98458.05
2022-11-03T19:08:59.807Z,98446.46
2022-11-03T19:14:01.827Z,98438.11
2022-11-03T19:19:04.164Z,98430.29
2022-11-03T19:24:06.268Z,98425.17
2022-11-03T19:29:14.750Z,98418.46
2022-11-03T19:34:20.047Z,98411.30
2022-11-03T19:39:36.083Z,98402.22
2022-11-03T19:44:37.960Z,98390.02
2022-11-03T19:49:39.810Z,98386.36
2022-11-03T19:54:48.756Z,98377.10
2022-11-03T19:59:50.539Z,98373.24
2022-11-03T20:04:52.326Z,98371.42
2022-11-03T20:09:54.137Z,98359.02
2022-11-03T20:14:55.975Z,98358.48
2022-11-03T20:19:57.993Z,98355.35
2022-11-03T20:25:03.323Z,98353.39
2022-11-03T20:30:05.942Z,98345.29
2022-11-03T20:35:13.448Z,98341.42
2022-11-03T20:40:19.466Z,98338.52
2022-11-03T20:45:23.314Z,98328.48
2022-11-03T20:50:25.872Z,98322.77
2022-11-03T20:55:27.662Z,98319.40
2022-11-03T21:00:31.735Z,98321.47
2022-11-03T21:05:33.607Z,98324.41
2022-11-03T21:10:36.035Z,98323.88
2022-11-03T21:16:23.004Z,98316.95
2022-11-03T21:21:21.495Z,98308.70
2022-11-03T21:26:23.386Z,98300.92
2022-11-03T21:31:25.234Z,98291.74
2022-11-03T21:36:27.022Z,98283.80
2022-11-03T21:41:47.758Z,98278.82
2022-11-03T21:46:49.536Z,98264.55
2022-11-03T21:51:51.397Z,98253.91
2022-11-03T21:56:53.262Z,98244.39
2022-11-03T22:01:55.403Z,98242.73
2022-11-03T22:06:59.102Z,98237.60
2022-11-03T22:12:05.673Z,98235.19
2022-11-03T22:17:07.540Z,98219.06
2022-11-03T22:22:33.707Z,98210.90
2022-11-03T22:27:35.543Z,98199.66
2022-11-03T22:32:39.917Z,98192.16
2022-11-03T22:37:42.071Z,98195.45
2022-11-03T22:43:03.590Z,98190.05
2022-11-03T22:48:09.475Z,98176.66
2022-11-03T22:53:30.498Z,98169.95
2022-11-03T22:58:33.374Z,98167.36
2022-11-03T23:03:37.270Z,98159.20
2022-11-03T23:08:41.163Z,98154.41
2022-11-03T23:13:44.879Z,98146.80
2022-11-03T23:19:06.472Z,98133.59
2022-11-03T23:24:27.165Z,98127.58
2022-11-03T23:29:29.462Z,98116.10
2022-11-03T23:34:31.283Z,98108.62
2022-11-03T23:39:33.081Z,98095.81
2022-11-03T23:44:53.636Z,98082.31
2022-11-03T23:49:55.428Z,98073.60
2022-11-03T23:54:57.312Z,98064.83
2022-11-03T23:59:59.157Z,98063.90
